Flight Track Log - Related Links

Times and Time Zones

All times are in EDT time to prevent confusion due to time zone crossing. See the N7191N flight status page for this flight to view local times or setup timezone preferences in your user account.


Time Position Orientation Groundspeed Altitude Reporting Facility
EDT Latitude Longitude Course Direction KTS MPH feet Rate Location/Type
Thu 04:53:05 PM 35.6736 -79.1436 343° North 157 181 4,700  Level Washington Center
Thu 04:53:36 PM 35.6961 -79.1522 343° North 153 176 5,500 1,475 Climbing Washington Center
Thu 04:54:06 PM 35.7169 -79.1583 347° North 167 192 6,200 1,333 Climbing Washington Center
Thu 04:55:06 PM 35.7542 -79.1728 343° North 175 201 7,500 1,377 Climbing Washington Center
Thu 04:56:08 PM 35.7972 -79.1900 342° North 158 182 9,000 1,450 Climbing Washington Center
Thu 04:57:06 PM 35.8344 -79.2072 339° North 153 176 10,400 1,462 Climbing Washington Center
Thu 04:58:07 PM 35.8797 -79.2269 341° North 153 176 11,900 1,412 Climbing Washington Center
Thu 04:59:05 PM 35.9147 -79.2417 341° North 147 169 13,200 1,322 Climbing Washington Center
Thu 05:00:05 PM 35.9600 -79.2592 343° North 147 169 14,500 1,033 Climbing Washington Center
Thu 05:01:07 PM 36.0033 -79.2764 342° North 160 184 15,300 885 Climbing Washington Center
Thu 05:02:07 PM 36.0569 -79.3019 339° North 172 198 16,300 1,068 Climbing Washington Center
Thu 05:03:05 PM 36.1022 -79.3222 340° North 182 209 17,400 1,169 Climbing Washington Center
Thu 05:04:05 PM 36.1556 -79.3453 341° North 188 216 18,600 1,190 Climbing Washington Center
Thu 05:05:06 PM 36.2008 -79.3656 340° North 182 209 19,800 1,033 Climbing Washington Center
Thu 05:06:07 PM 36.2483 -79.3858 341° North 176 203 20,700 893 Climbing Washington Center
Thu 05:07:07 PM 36.2978 -79.4064 341° North 176 203 21,600 1,050 Climbing Washington Center
Thu 05:08:07 PM 36.3450 -79.4292 339° North 181 208 22,800 966 Climbing Washington Center
Thu 05:09:05 PM 36.3800 -79.4411 345° North 176 203 23,500 763 Climbing Washington Center
Thu 05:10:05 PM 36.4294 -79.4617 342° North 170 196 24,300 850 Climbing Washington Center
Thu 05:11:05 PM 36.4808 -79.4850 340° North 169 194 25,200 793 Climbing Washington Center
Thu 05:12:06 PM 36.5281 -79.5056 341° North 169 194 25,900 393 Climbing Washington Center
Thu 05:13:07 PM 36.5797 -79.5261 342° North 176 203 26,000 50 Climbing Washington Center
Thu 05:14:05 PM 36.6353 -79.5497 341° North 190 219 26,000 -51 Level Washington Center
Thu 05:15:05 PM 36.6886 -79.5731 341° North 209 241 25,900 -50 Descending Washington Center
Thu 05:16:06 PM 36.7483 -79.5994 341° North 215 247 25,900  Level Washington Center
Thu 05:17:07 PM 36.8081 -79.6258 341° North 225 259 25,900  Level Washington Center
Thu 05:18:08 PM 36.8736 -79.6553 340° North 225 259 25,900 50 Level Washington Center
Thu 05:19:06 PM 36.9333 -79.6792 342° North 225 259 26,000  Climbing Washington Center
Thu 05:20:06 PM 36.9928 -79.7083 339° North 225 259 25,900  Descending Washington Center
Thu 05:21:07 PM 37.0525 -79.7325 342° North 225 259 26,000  Climbing Washington Center
Thu 05:22:05 PM 37.1058 -79.7586 339° North 225 259 25,900  Descending Washington Center
Thu 05:23:06 PM 37.1675 -79.7831 342° North 225 259 26,000 50 Climbing Washington Center
Thu 05:24:06 PM 37.2250 -79.8094 340° North 225 259 26,000  Level Washington Center
Thu 05:25:07 PM 37.2844 -79.8389 338° Northwest 225 259 26,000 -50 Level Washington Center
Thu 05:26:07 PM 37.3464 -79.8633 343° North 225 259 25,900  Descending Washington Center
Thu 05:27:05 PM 37.4119 -79.8958 339° North 225 259 26,000 50 Climbing Washington Center
Thu 05:28:06 PM 37.4714 -79.9200 342° North 225 259 26,000  Level Washington Center
Thu 05:29:07 PM 37.5311 -79.9444 342° North 225 259 26,000  Level Washington Center
Thu 05:30:05 PM 37.5886 -79.9714 340° North 225 259 26,000  Level Washington Center
Thu 05:31:05 PM 37.6461 -79.9981 340° North 225 259 26,000  Level Washington Center
Thu 05:32:06 PM 37.7014 -80.0225 341° North 225 259 26,000  Level Washington Center
Thu 05:33:07 PM 37.7589 -80.0469 341° North 225 259 26,000  Level Washington Center
Thu 05:34:05 PM 37.8164 -80.0739 340° North 225 259 26,000 -50 Level Washington Center
Thu 05:35:06 PM 37.8758 -80.1011 340° North 225 259 25,900  Descending Washington Center
Thu 05:36:07 PM 37.9414 -80.1286 342° North 225 259 26,000  Climbing Washington Center
Thu 05:37:05 PM 38.0011 -80.1508 344° North 225 259 25,900 -51 Descending Washington Center
Thu 05:38:05 PM 38.0678 -80.1497 North 225 259 25,900  Level Washington Center
Thu 05:39:07 PM 38.1325 -80.1483 North 225 259 25,900 49 Level Washington Center
Thu 05:40:07 PM 38.1792 -80.1856 328° Northwest 219 252 26,000 50 Climbing Washington Center
Thu 05:41:07 PM 38.2297 -80.2281 327° Northwest 214 246 26,000  Level Washington Center
Thu 05:42:06 PM 38.2756 -80.2839 316° Northwest 214 246 26,000 -32 Level Washington Center
Thu 05:44:14 PM 38.3767 -80.3850 322° Northwest 229 264 25,900  Descending Indianapolis Center
Thu 05:45:16 PM 38.4306 -80.4483 317° Northwest 227 261 26,000 48 Climbing Indianapolis Center
Thu 05:46:18 PM 38.4808 -80.5000 321° Northwest 223 257 26,000  Level Indianapolis Center
Thu 05:47:20 PM 38.5364 -80.5392 331° Northwest 226 260 26,000  Level Indianapolis Center
Thu 05:48:22 PM 38.5894 -80.5822 328° Northwest 225 259 26,000  Level Indianapolis Center
Thu 05:49:24 PM 38.6444 -80.6261 328° Northwest 232 267 26,000  Level Indianapolis Center
Thu 05:50:26 PM 38.6975 -80.6686 328° Northwest 227 261 26,000  Level Indianapolis Center
Thu 05:51:28 PM 38.7522 -80.7111 329° Northwest 229 264 26,000 -48 Level Indianapolis Center
Thu 05:52:30 PM 38.8178 -80.7647 328° Northwest 232 267 25,900 -48 Descending Indianapolis Center
Thu 05:53:32 PM 38.8725 -80.8081 328° Northwest 232 267 25,900 48 Level Indianapolis Center
Thu 05:54:34 PM 38.9250 -80.8514 327° Northwest 225 259 26,000  Climbing Indianapolis Center
Thu 05:55:36 PM 38.9786 -80.8942 328° Northwest 226 260 25,900  Descending Indianapolis Center
Thu 05:56:38 PM 39.0311 -80.9369 328° Northwest 224 258 26,000 48 Climbing Indianapolis Center
Thu 05:57:40 PM 39.0833 -80.9783 328° Northwest 223 257 26,000 -48 Level Indianapolis Center
Thu 05:58:42 PM 39.1450 -81.0289 328° Northwest 220 253 25,900 -48 Descending Indianapolis Center
Thu 05:59:44 PM 39.1961 -81.0706 328° Northwest 218 251 25,900  Level Indianapolis Center
Thu 06:00:46 PM 39.2467 -81.1128 327° Northwest 216 249 25,900 -242 Level Indianapolis Center
Thu 06:01:48 PM 39.2969 -81.1536 328° Northwest 215 247 25,400 -720 Descending Indianapolis Center
Thu 06:02:51 PM 39.3542 -81.2003 328° Northwest 240 276 24,400 -672 Descending Indianapolis Center
Thu 06:03:53 PM 39.4097 -81.2469 327° Northwest 240 276 24,000 -194 Descending Indianapolis Center
Thu 06:04:55 PM 39.4781 -81.3017 328° Northwest 240 276 24,000  Level Indianapolis Center
Thu 06:05:57 PM 39.5328 -81.3483 327° Northwest 237 273 24,000  Level Indianapolis Center
Thu 06:06:59 PM 39.5883 -81.3931 328° Northwest 235 270 24,000  Level Indianapolis Center
Thu 06:08:01 PM 39.6433 -81.4392 327° Northwest 235 270 24,000  Level Indianapolis Center
Thu 06:09:03 PM 39.6981 -81.4844 328° Northwest 234 269 24,000  Level Indianapolis Center
Thu 06:10:05 PM 39.7625 -81.5389 327° Northwest 235 270 24,000  Level Indianapolis Center
Thu 06:11:07 PM 39.8175 -81.5864 326° Northwest 236 272 24,000  Level Indianapolis Center
Thu 06:12:09 PM 39.8736 -81.6317 328° Northwest 235 270 24,000  Level Indianapolis Center
Thu 06:13:11 PM 39.9281 -81.6781 327° Northwest 234 269 24,000 -290 Level Indianapolis Center
Thu 06:14:13 PM 39.9831 -81.7231 328° Northwest 238 274 23,400 -726 Descending Indianapolis Center
Thu 06:15:15 PM 40.0442 -81.7753 327° Northwest 249 287 22,500 -871 Descending Indianapolis Center
Thu 06:16:17 PM 40.1044 -81.8250 328° Northwest 253 291 21,600 -1,065 Descending Indianapolis Center
Thu 06:17:19 PM 40.1878 -81.8122 North 269 310 20,300 -1,065 Descending Indianapolis Center
Thu 06:18:21 PM 40.2597 -81.7925 12° North 270 311 19,400 -823 Descending Indianapolis Center
Thu 06:19:23 PM 40.3339 -81.7786 North 267 307 18,600 -545 Descending Indianapolis Center
Thu 06:20:22 PM 40.4092 -81.7639 North 264 304 18,300 -807 Descending Cleveland Center
Thu 06:21:22 PM 40.4822 -81.7486 North 264 304 17,000 -1,150 Descending Cleveland Center
Thu 06:22:22 PM 40.5617 -81.7308 10° North 275 316 16,000 -1,000 Descending Cleveland Center
Thu 06:23:22 PM 40.6369 -81.7158 North 275 316 15,000 -504 Descending Cleveland Center
Thu 06:24:21 PM 40.7078 -81.7033 North 254 292 15,000  Level Cleveland Center
Thu 06:25:04 PM 40.7539 -81.6931 10° North 244 281 15,000 -98 Level Cleveland Center
Thu 06:25:22 PM 40.7789 -81.6881 North 261 300 14,900 -436 Descending Cleveland Center
Thu 06:25:59 PM 40.8164 -81.6833 North 249 287 14,600 -500 Descending Cleveland Center
Thu 06:26:22 PM 40.8394 -81.6753 15° North 256 295 14,400 -889 Descending Cleveland Center
Thu 06:26:53 PM 40.8814 -81.6650 10° North 244 281 13,800 -1,200 Descending Cleveland Center
Thu 06:27:22 PM 40.9042 -81.6600 North 245 282 13,200 -1,770 Descending Cleveland Center
Thu 06:27:54 PM 40.9458 -81.6800 340° North 246 283 12,000 -1,900 Descending Cleveland Center
Thu 06:28:22 PM 40.9622 -81.6967 322° Northwest 206 237 11,300 -1,574 Descending Cleveland Center
Thu 06:28:55 PM 40.9889 -81.7411 308° West 232 267 10,400 -1,500 Descending Cleveland Center
Thu 06:29:22 PM 41.0053 -81.7608 318° Northwest 220 253 9,800 -1,556 Descending Cleveland Center
Thu 06:29:49 PM 41.0281 -81.7914 315° West 227 261 9,000 -1,700 Descending Cleveland Center
Thu 06:30:22 PM 41.0506 -81.8167 320° Northwest 225 259 8,100 -1,612 Descending Cleveland Center
Thu 06:30:56 PM 41.0836 -81.8614 314° West 234 269 7,200 -1,100 Descending Cleveland Center
Thu 06:31:22 PM 41.1019 -81.8836 318° Northwest 225 259 7,000 -98 Descending Cleveland Center
Thu 06:31:57 PM 41.1286 -81.9200 314° West 230 265 7,100  Climbing Cleveland Center
Thu 06:32:22 PM 41.1472 -81.9425 318° Northwest 225 259 7,000 -716 Descending Cleveland Center
Thu 06:33:04 PM 41.1781 -81.9817 316° Northwest 230 265 6,300 -1,200 Descending Cleveland Center
Thu 06:33:22 PM 41.1944 -81.9958 327° Northwest 225 259 5,800 -1,082 Descending Cleveland Center
Thu 06:34:05 PM 41.2272 -82.0408 314° West 226 260 5,200 -866 Descending Cleveland Center
Thu 06:34:59 PM 41.2775 -82.0308 North 216 249 4,400 -991 Descending Cleveland Center
Thu 06:36:00 PM 41.3239 -81.9906 33° Northeast 175 201 3,300 -1,033 Descending Cleveland Center
Thu 06:37:01 PM 41.3536 -81.9469 48° Northeast 146 168 2,300 -828 Descending Cleveland Center
Thu 06:37:56 PM 41.3769 -81.9142 47° Northeast 139 160 1,700 -655 Descending Cleveland Center

Login

Don't have an account? Register now (free) for customized features, flight alerts, and more!